Aérodrome :
LOGIN :

S'inscrire | Disclaimer

   EN    FR    IT 

 










Légende :    VFR   VFR Marginal   IFR   IFR Intensif   IFR Très Intensif
Visi : 
Plafond : 
>= 8 km
>= 3000ft
5 à 8 km
1000 à 3000 ft
1500m à 5 km
500 à 1000 ft
800 à 1500m
200 à 500 ft
< 800m
< 200 ft
Symboles :   Orages  Brouillard  Fortes neiges  Fortes précipitations  Vent > 20 kt
SIGMETs :   Divers  Orages  Givrage  Turbulence  Onde Orograph.  Cendres Volcan.






- Altitude de l'aérodrome : 699 ft
- Code IATA : PAD


EDLP - Paderborn Lippstadt

METAR N/A
TAF TAF EDLP
Valide du 30 à 18h jusqu'au 01 à 18h UTC


301700Z 3018/0118 20008KT 9999 BKN020
BECMG 3018/3021 20013KT RA
PROB30
TEMPO 3019/0101 4000 RADZ BKN014
BECMG 3022/0101 NSW
BECMG 0101/0104 BKN012
TEMPO 0101/0110 2500 DZRA BR BKN004
BECMG 0103/0106 23008KT
BECMG 0108/0111 VRB03KT
PROB30
TEMPO 0110/0115 2500 SHRA BR BKN004 BKN020TCU
PROB30
TEMPO 0115/0118 2500 BR BKN004



MET'MAP, la Météo Aéronautique d'un coup d'oeil ! - Copyright ORBIFLY Décembre 2007 - Disclaimer

ORBIFLY MET'MAP TEAM :

Programmation & Développement : Alexandra Zaïnal
Sur une idée originale de : Baudouin d'Aumeries
Assistance à la programmation : Marc-Olivier Méhu
Soutien technique & logistique : Manuel Goepfert

Contact : metmap@orbifly.com




SOURCES & CREDITS :

   NOAA